createdAt,value
2018-06-19T00:01:01.475Z,2.83
2018-06-19T00:03:28.641Z,2.90
2018-06-19T00:05:55.815Z,2.90
2018-06-19T00:08:23.109Z,3.00
2018-06-19T00:10:50.244Z,3.10
2018-06-19T00:13:17.366Z,2.83
2018-06-19T00:15:44.517Z,3.07
2018-06-19T00:18:19.196Z,2.93
2018-06-19T00:20:46.377Z,3.13
2018-06-19T00:23:13.519Z,2.73
2018-06-19T00:25:40.680Z,3.43
2018-06-19T00:28:07.795Z,2.90
2018-06-19T00:30:34.923Z,3.13
2018-06-19T00:33:02.048Z,2.83
2018-06-19T00:35:29.213Z,3.50
2018-06-19T00:37:56.347Z,3.03
2018-06-19T00:40:23.479Z,2.80
2018-06-19T00:42:50.714Z,2.77
2018-06-19T00:45:17.896Z,2.80
2018-06-19T00:47:45.049Z,3.23
2018-06-19T00:50:12.197Z,2.90
2018-06-19T00:52:39.363Z,2.70
2018-06-19T00:55:06.489Z,3.23
2018-06-19T00:57:33.697Z,3.37
2018-06-19T01:00:00.831Z,3.63
2018-06-19T01:02:28.073Z,3.30
2018-06-19T01:04:55.270Z,3.03
2018-06-19T01:07:22.384Z,2.97
2018-06-19T01:09:49.579Z,3.37
2018-06-19T01:12:16.720Z,2.70
2018-06-19T01:14:43.866Z,3.60
2018-06-19T01:17:10.982Z,3.03
2018-06-19T01:19:38.108Z,3.17
2018-06-19T01:22:05.235Z,3.30
2018-06-19T01:24:32.396Z,3.20
2018-06-19T01:26:59.556Z,3.40
2018-06-19T01:29:26.697Z,3.50
2018-06-19T01:31:53.786Z,3.07
2018-06-19T01:34:20.891Z,3.27
2018-06-19T01:36:47.985Z,3.33
2018-06-19T01:39:15.138Z,3.47
2018-06-19T01:41:42.261Z,3.10
2018-06-19T01:44:09.366Z,3.57
2018-06-19T01:46:36.487Z,3.27
2018-06-19T01:49:03.596Z,3.70
2018-06-19T01:51:30.726Z,3.67
2018-06-19T01:53:57.893Z,3.27
2018-06-19T01:56:25.009Z,3.70
2018-06-19T01:58:52.130Z,3.37
2018-06-19T02:01:19.250Z,3.80
2018-06-19T02:03:46.354Z,3.27
2018-06-19T02:06:13.458Z,3.47
2018-06-19T02:08:40.597Z,3.23
2018-06-19T02:11:07.722Z,3.60
2018-06-19T02:13:34.828Z,3.50
2018-06-19T02:16:01.967Z,3.60
2018-06-19T02:18:29.130Z,3.57
2018-06-19T02:20:56.337Z,3.53
2018-06-19T02:23:23.439Z,3.57
2018-06-19T02:25:50.646Z,4.50
2018-06-19T02:28:17.745Z,3.37
2018-06-19T02:30:44.941Z,3.77
2018-06-19T02:33:12.101Z,3.60
2018-06-19T02:35:39.230Z,3.67
2018-06-19T02:38:06.359Z,3.77
2018-06-19T02:40:33.497Z,3.90
2018-06-19T02:43:00.729Z,3.83
2018-06-19T02:45:27.899Z,4.10
2018-06-19T02:47:55.050Z,4.27
2018-06-19T02:50:22.162Z,4.17
2018-06-19T02:52:49.293Z,3.20
2018-06-19T02:55:16.402Z,3.80
2018-06-19T02:57:43.526Z,3.53
2018-06-19T03:00:10.622Z,3.30
2018-06-19T03:02:37.728Z,4.10
2018-06-19T03:05:05.299Z,3.60
2018-06-19T03:07:32.397Z,3.80
2018-06-19T03:09:59.589Z,3.70
2018-06-19T03:12:26.706Z,4.07
2018-06-19T03:14:53.826Z,4.50
2018-06-19T03:17:20.965Z,4.67
2018-06-19T03:19:48.098Z,5.73
2018-06-19T03:22:15.254Z,3.57
2018-06-19T03:24:42.359Z,4.77
2018-06-19T03:27:09.466Z,4.30
2018-06-19T03:29:36.590Z,3.70
2018-06-19T03:32:03.730Z,4.33
2018-06-19T03:34:30.842Z,3.87
2018-06-19T03:36:58.016Z,3.87
2018-06-19T03:39:25.137Z,3.90
2018-06-19T03:41:52.269Z,3.73
2018-06-19T03:44:19.377Z,3.97
2018-06-19T03:46:46.477Z,4.10
2018-06-19T03:49:13.577Z,4.33
2018-06-19T03:51:40.687Z,3.90
2018-06-19T03:54:07.785Z,3.43
2018-06-19T03:56:34.890Z,3.50
2018-06-19T03:59:02.038Z,3.77
2018-06-19T04:01:29.217Z,4.07
2018-06-19T04:03:56.351Z,4.23
2018-06-19T04:06:28.057Z,3.60
2018-06-19T04:08:55.170Z,3.43
2018-06-19T04:11:22.263Z,3.73
2018-06-19T04:13:49.361Z,3.47
2018-06-19T04:16:16.477Z,3.67
2018-06-19T04:18:43.577Z,4.07
2018-06-19T04:21:10.670Z,3.70
2018-06-19T04:23:37.825Z,3.73
2018-06-19T04:26:06.050Z,3.90
2018-06-19T04:28:33.222Z,3.90
2018-06-19T04:31:00.390Z,3.40
2018-06-19T04:33:27.510Z,3.80
2018-06-19T04:35:54.649Z,3.40
2018-06-19T04:38:21.736Z,4.13
2018-06-19T04:40:48.824Z,3.47
2018-06-19T04:43:15.921Z,3.47
2018-06-19T04:45:43.018Z,4.03
2018-06-19T04:48:10.114Z,4.00
2018-06-19T04:50:37.231Z,4.07
2018-06-19T04:53:04.393Z,3.80
2018-06-19T04:55:31.481Z,3.40
2018-06-19T04:57:58.661Z,2.97
2018-06-19T05:00:25.883Z,2.87
2018-06-19T05:02:52.996Z,3.47
2018-06-19T05:05:20.121Z,3.15
2018-06-19T05:07:47.224Z,2.33
2018-06-19T05:10:14.333Z,2.67
2018-06-19T05:12:41.446Z,2.95
2018-06-19T05:15:08.574Z,2.40
2018-06-19T05:17:35.661Z,2.10
2018-06-19T05:20:02.837Z,2.37
2018-06-19T05:22:29.981Z,2.20
2018-06-19T05:24:57.160Z,2.42
2018-06-19T05:27:24.245Z,2.15
2018-06-19T05:29:51.373Z,2.33
2018-06-19T05:32:18.504Z,2.40
2018-06-19T05:34:45.594Z,1.80
2018-06-19T05:37:12.725Z,2.00
2018-06-19T05:39:39.831Z,2.42
2018-06-19T05:42:06.953Z,1.95
2018-06-19T05:44:34.054Z,2.60
2018-06-19T05:47:01.227Z,2.05
2018-06-19T05:49:28.448Z,2.10
2018-06-19T05:51:55.562Z,2.10
2018-06-19T05:54:22.697Z,2.00
2018-06-19T05:56:49.854Z,2.22
2018-06-19T05:59:16.993Z,2.15
2018-06-19T06:01:44.110Z,2.12
2018-06-19T06:04:11.226Z,2.00
2018-06-19T06:06:38.332Z,1.75
2018-06-19T06:09:06.930Z,2.10
2018-06-19T06:11:34.072Z,1.90
2018-06-19T06:14:01.238Z,1.87
2018-06-19T06:16:28.405Z,2.45
2018-06-19T06:18:55.479Z,2.10
2018-06-19T06:21:22.765Z,1.90
2018-06-19T06:23:49.877Z,1.92
2018-06-19T06:26:17.033Z,1.90
2018-06-19T06:28:44.150Z,1.80
2018-06-19T06:31:11.263Z,1.75
2018-06-19T06:33:38.373Z,1.82
2018-06-19T06:36:05.520Z,1.60
2018-06-19T06:38:32.671Z,2.10
2018-06-19T06:40:59.821Z,1.92
2018-06-19T06:43:26.996Z,1.87
2018-06-19T06:45:54.115Z,1.60
2018-06-19T06:48:21.257Z,1.80
2018-06-19T06:50:48.416Z,2.17
2018-06-19T06:53:15.520Z,1.75
2018-06-19T06:55:43.069Z,1.65
2018-06-19T06:58:10.188Z,1.65
2018-06-19T07:00:37.298Z,1.77
2018-06-19T07:03:04.426Z,2.00
2018-06-19T07:05:31.557Z,2.00
2018-06-19T07:07:58.698Z,1.92
2018-06-19T07:10:25.945Z,1.55
2018-06-19T07:12:53.042Z,1.60
2018-06-19T07:15:20.190Z,1.32
2018-06-19T07:17:47.289Z,1.55
2018-06-19T07:20:14.407Z,2.00
2018-06-19T07:22:41.498Z,1.82
2018-06-19T07:25:08.621Z,1.67
2018-06-19T07:27:35.800Z,1.70
2018-06-19T07:30:02.957Z,1.40
2018-06-19T07:32:30.100Z,1.42
2018-06-19T07:34:57.252Z,2.17
2018-06-19T07:37:24.350Z,2.08
2018-06-19T07:39:51.447Z,1.90
2018-06-19T07:42:18.538Z,1.85
2018-06-19T07:44:45.619Z,2.15
2018-06-19T07:47:12.749Z,1.30
2018-06-19T07:49:39.850Z,1.57
2018-06-19T07:52:06.953Z,1.60
2018-06-19T07:54:34.058Z,1.15
2018-06-19T07:57:01.188Z,1.72
2018-06-19T07:59:28.375Z,2.10
2018-06-19T08:01:55.497Z,1.92
2018-06-19T08:04:22.653Z,1.95
2018-06-19T08:06:49.739Z,3.22
2018-06-19T08:09:16.927Z,2.42
2018-06-19T08:11:44.194Z,1.40
2018-06-19T08:14:11.285Z,2.20
2018-06-19T08:16:38.404Z,1.70
2018-06-19T08:19:05.538Z,1.72
2018-06-19T08:21:32.640Z,1.60
2018-06-19T08:23:59.794Z,1.65
2018-06-19T08:26:27.010Z,2.15
2018-06-19T08:28:54.233Z,1.75
2018-06-19T08:31:21.357Z,1.60
2018-06-19T08:33:48.479Z,2.05
2018-06-19T08:36:15.627Z,3.67
2018-06-19T08:38:42.709Z,3.12
2018-06-19T08:41:09.957Z,2.20
2018-06-19T08:43:37.071Z,2.52
2018-06-19T08:46:04.221Z,1.90
2018-06-19T08:48:31.369Z,1.42
2018-06-19T08:50:58.549Z,2.55
2018-06-19T08:53:25.679Z,2.62
2018-06-19T08:55:52.860Z,1.82
2018-06-19T08:58:20.002Z,1.90
2018-06-19T09:00:47.118Z,1.50
2018-06-19T09:03:14.245Z,1.50
2018-06-19T09:05:41.394Z,1.25
2018-06-19T09:08:08.509Z,1.55
2018-06-19T09:10:35.644Z,1.98
2018-06-19T09:13:02.786Z,1.55
2018-06-19T09:15:29.942Z,1.42
2018-06-19T09:17:57.118Z,1.70
2018-06-19T09:20:24.245Z,1.25
2018-06-19T09:22:51.349Z,0.93
2018-06-19T09:25:18.457Z,0.98
2018-06-19T09:27:45.565Z,1.40
2018-06-19T09:30:12.710Z,0.85
2018-06-19T09:32:39.842Z,1.02
2018-06-19T09:35:06.957Z,3.02
2018-06-19T09:37:34.149Z,1.30
2018-06-19T09:40:01.266Z,1.10
2018-06-19T09:42:28.397Z,1.65
2018-06-19T09:44:55.540Z,0.93
2018-06-19T09:47:22.731Z,1.00
2018-06-19T09:49:49.842Z,1.42
2018-06-19T09:52:16.944Z,1.50
2018-06-19T09:54:44.157Z,1.30
2018-06-19T09:57:11.281Z,0.90
2018-06-19T09:59:38.528Z,0.50
2018-06-19T10:02:05.633Z,0.72
2018-06-19T10:04:32.738Z,0.80
2018-06-19T10:06:59.900Z,0.80
2018-06-19T10:09:27.146Z,1.02
2018-06-19T10:11:54.382Z,0.90
2018-06-19T10:14:21.492Z,0.90
2018-06-19T10:16:48.622Z,0.90
2018-06-19T10:19:15.765Z,1.10
2018-06-19T10:21:42.885Z,1.10
2018-06-19T10:24:10.005Z,1.50
2018-06-19T10:26:37.133Z,1.40
2018-06-19T10:29:04.272Z,1.12
2018-06-19T10:31:31.477Z,1.02
2018-06-19T10:33:58.674Z,0.70
2018-06-19T10:36:25.829Z,0.95
2018-06-19T10:38:52.942Z,0.90
2018-06-19T10:41:20.104Z,1.30
2018-06-19T10:43:47.244Z,0.90
2018-06-19T10:46:14.369Z,1.20
2018-06-19T10:48:41.468Z,0.90
2018-06-19T10:51:08.586Z,0.85
2018-06-19T10:53:35.705Z,1.17
2018-06-19T10:56:02.827Z,0.75
2018-06-19T10:58:30.063Z,0.90
2018-06-19T11:00:57.241Z,1.15
2018-06-19T11:03:24.341Z,0.93
2018-06-19T11:05:51.518Z,1.10
2018-06-19T11:08:18.683Z,0.80
2018-06-19T11:10:45.736Z,1.00
2018-06-19T11:13:12.881Z,1.30
2018-06-19T11:15:39.997Z,1.30
2018-06-19T11:18:07.121Z,1.02
2018-06-19T11:20:34.249Z,1.15
2018-06-19T11:23:01.425Z,1.22
2018-06-19T11:25:28.914Z,1.15
2018-06-19T11:27:56.101Z,1.00
2018-06-19T11:32:57.207Z,1.07
2018-06-19T11:35:24.342Z,1.17
2018-06-19T11:37:51.636Z,0.98
2018-06-19T11:40:18.788Z,1.15
2018-06-19T11:42:45.909Z,1.20
2018-06-19T11:45:12.997Z,1.62
2018-06-19T11:47:40.113Z,3.67
2018-06-19T11:50:07.261Z,1.80
2018-06-19T11:52:34.474Z,1.50
2018-06-19T11:55:01.670Z,1.75
2018-06-19T11:57:28.869Z,1.30
2018-06-19T11:59:56.293Z,1.05
2018-06-19T12:02:23.478Z,1.20
2018-06-19T12:04:50.582Z,1.20
2018-06-19T12:07:17.718Z,1.22
2018-06-19T12:09:44.813Z,1.10
2018-06-19T12:12:11.929Z,1.35
2018-06-19T12:14:39.094Z,1.10
2018-06-19T12:17:06.201Z,0.85
2018-06-19T12:19:33.293Z,1.10
2018-06-19T12:22:00.477Z,0.95
2018-06-19T12:24:27.610Z,0.85
2018-06-19T12:26:54.817Z,0.90
2018-06-19T12:29:21.967Z,1.20
2018-06-19T12:31:49.081Z,0.90
2018-06-19T12:34:16.175Z,1.05
2018-06-19T12:36:43.274Z,1.40
2018-06-19T12:39:11.249Z,1.07
2018-06-19T12:41:41.656Z,1.00
2018-06-19T12:44:09.174Z,1.10
2018-06-19T12:46:36.846Z,2.33
2018-06-19T12:49:04.209Z,1.05
2018-06-19T12:51:49.514Z,1.10
2018-06-19T12:54:26.046Z,1.20
2018-06-19T12:56:53.185Z,1.20
2018-06-19T12:59:20.309Z,1.07
2018-06-19T13:01:47.426Z,1.32
2018-06-19T13:05:27.234Z,2.52
2018-06-19T13:07:54.341Z,1.32
2018-06-19T13:10:21.462Z,1.10
2018-06-19T13:13:26.961Z,1.40
2018-06-19T13:15:54.652Z,1.22
2018-06-19T13:18:34.576Z,1.27
2018-06-19T13:21:01.792Z,1.47
2018-06-19T13:23:29.221Z,1.80
2018-06-19T13:25:56.520Z,1.20
2018-06-19T13:29:39.416Z,1.30
2018-06-19T13:32:06.552Z,1.45
2018-06-19T13:34:34.661Z,1.50
2018-06-19T13:37:02.541Z,1.75
2018-06-19T13:39:29.829Z,1.20
2018-06-19T13:42:08.548Z,1.50
2018-06-19T13:44:51.594Z,1.50
2018-06-19T13:47:19.274Z,1.70
2018-06-19T13:49:46.445Z,1.45
2018-06-19T13:52:13.549Z,1.62
2018-06-19T13:54:40.651Z,1.30
2018-06-19T13:57:36.646Z,1.02
2018-06-19T14:00:07.833Z,1.47
2018-06-19T14:02:34.951Z,1.22
2018-06-19T14:05:02.575Z,1.20
2018-06-19T14:07:36.655Z,1.72
2018-06-19T14:10:15.455Z,1.65
2018-06-19T14:13:01.185Z,1.27
2018-06-19T14:15:30.897Z,0.98
2018-06-19T14:17:58.349Z,1.05
2018-06-19T14:20:25.511Z,1.50
2018-06-19T14:22:52.793Z,1.67
2018-06-19T14:25:20.340Z,1.25
2018-06-19T14:27:47.533Z,1.60
2018-06-19T14:30:14.715Z,1.22
2018-06-19T14:32:42.137Z,1.90
2018-06-19T14:35:09.622Z,1.25
2018-06-19T14:37:36.754Z,1.30
2018-06-19T14:40:04.162Z,1.40
2018-06-19T14:42:31.444Z,1.52
2018-06-19T14:44:58.662Z,1.80
2018-06-19T14:47:26.009Z,1.00
2018-06-19T14:49:53.218Z,1.40
2018-06-19T14:52:20.367Z,1.37
2018-06-19T14:54:47.489Z,1.75
2018-06-19T14:57:14.613Z,1.70
2018-06-19T14:59:41.753Z,1.55
2018-06-19T15:02:08.891Z,1.82
2018-06-19T15:04:36.006Z,1.80
2018-06-19T15:07:03.225Z,1.92
2018-06-19T15:09:30.418Z,1.72
2018-06-19T15:11:57.770Z,1.42
2018-06-19T15:14:24.940Z,1.40
2018-06-19T15:16:52.253Z,1.82
2018-06-19T15:19:19.361Z,1.62
2018-06-19T15:21:46.637Z,1.70
2018-06-19T15:24:13.927Z,2.02
2018-06-19T15:26:40.938Z,2.00
2018-06-19T15:29:08.082Z,1.85
2018-06-19T15:31:35.238Z,1.95
2018-06-19T15:34:02.382Z,1.98
2018-06-19T15:36:29.675Z,2.02
2018-06-19T15:38:56.826Z,1.90
2018-06-19T15:41:23.974Z,1.75
2018-06-19T15:43:51.110Z,2.17
2018-06-19T15:46:18.201Z,2.20
2018-06-19T15:48:45.343Z,1.82
2018-06-19T15:51:12.481Z,1.60
2018-06-19T15:53:39.619Z,1.65
2018-06-19T15:56:06.757Z,1.95
2018-06-19T15:58:33.890Z,1.72
2018-06-19T16:01:01.075Z,1.70
2018-06-19T16:03:28.452Z,1.70
2018-06-19T16:05:55.638Z,1.92
2018-06-19T16:08:22.745Z,2.00
2018-06-19T16:10:49.906Z,1.80
2018-06-19T16:13:17.036Z,2.10
2018-06-19T16:15:44.150Z,1.55
2018-06-19T16:18:11.761Z,1.60
2018-06-19T16:20:38.914Z,1.70
2018-06-19T16:23:06.129Z,2.05
2018-06-19T16:25:33.695Z,1.60
2018-06-19T16:28:01.038Z,1.90
2018-06-19T16:30:28.191Z,1.60
2018-06-19T16:32:55.341Z,1.50
2018-06-19T16:35:22.509Z,1.77
2018-06-19T16:37:49.682Z,1.85
2018-06-19T16:40:16.815Z,1.70
2018-06-19T16:42:43.923Z,1.62
2018-06-19T16:45:11.053Z,1.50
2018-06-19T16:47:38.192Z,1.87
2018-06-19T16:50:05.541Z,1.92
2018-06-19T16:52:32.657Z,1.55
2018-06-19T16:54:59.944Z,1.70
2018-06-19T16:57:27.070Z,1.55
2018-06-19T16:59:54.158Z,1.52
2018-06-19T17:02:21.297Z,1.50
2018-06-19T17:04:48.438Z,1.67
2018-06-19T17:07:15.724Z,1.70
2018-06-19T17:09:42.994Z,1.90
2018-06-19T17:12:11.245Z,1.65
2018-06-19T17:14:39.529Z,1.77
2018-06-19T17:17:08.217Z,1.77
2018-06-19T17:19:37.702Z,1.67
2018-06-19T17:22:04.898Z,1.60
2018-06-19T17:24:32.403Z,1.52
2018-06-19T17:26:59.557Z,1.57
2018-06-19T17:29:27.229Z,1.60
2018-06-19T17:31:54.372Z,1.55
2018-06-19T17:34:21.530Z,1.40
2018-06-19T17:36:48.665Z,1.40
2018-06-19T17:39:15.770Z,1.30
2018-06-19T17:41:42.877Z,1.20
2018-06-19T17:44:10.004Z,1.30
2018-06-19T17:46:37.119Z,1.80
2018-06-19T17:49:04.263Z,1.80
2018-06-19T17:51:31.413Z,1.85
2018-06-19T17:53:58.606Z,2.20
2018-06-19T17:56:25.755Z,1.80
2018-06-19T17:58:52.925Z,1.98
2018-06-19T18:01:20.054Z,1.83
2018-06-19T18:03:47.249Z,2.05
2018-06-19T18:06:14.350Z,1.90
2018-06-19T18:08:41.529Z,1.72
2018-06-19T18:11:08.630Z,2.00
2018-06-19T18:13:35.737Z,2.03
2018-06-19T18:16:02.845Z,2.00
2018-06-19T18:18:30.116Z,1.70
2018-06-19T18:20:57.317Z,1.70
2018-06-19T18:23:24.487Z,1.83
2018-06-19T18:25:51.593Z,1.98
2018-06-19T18:28:18.689Z,2.23
2018-06-19T18:30:45.976Z,1.97
2018-06-19T18:33:13.173Z,2.12
2018-06-19T18:35:40.261Z,2.30
2018-06-19T18:38:07.726Z,2.07
2018-06-19T18:40:34.904Z,2.40
2018-06-19T18:43:02.033Z,2.13
2018-06-19T18:45:29.206Z,2.00
2018-06-19T18:47:56.487Z,2.15
2018-06-19T18:50:23.669Z,2.10
2018-06-19T18:52:50.786Z,2.00
2018-06-19T18:55:17.916Z,2.02
2018-06-19T18:57:45.035Z,2.20
2018-06-19T19:00:12.189Z,2.10
2018-06-19T19:02:39.285Z,2.20
2018-06-19T19:05:06.425Z,2.37
2018-06-19T19:07:33.654Z,2.20
2018-06-19T19:10:06.598Z,2.13
2018-06-19T19:12:33.758Z,2.20
2018-06-19T19:15:06.756Z,2.83
2018-06-19T19:17:39.777Z,2.50
2018-06-19T19:20:06.885Z,2.40
2018-06-19T19:22:34.003Z,2.37
2018-06-19T19:25:01.209Z,2.30
2018-06-19T19:27:34.169Z,2.57
2018-06-19T19:30:02.267Z,2.70
2018-06-19T19:32:29.461Z,2.83
2018-06-19T19:34:56.600Z,2.70
2018-06-19T19:37:29.605Z,2.47
2018-06-19T19:39:56.761Z,2.90
2018-06-19T19:42:23.877Z,2.70
2018-06-19T19:44:50.990Z,2.67
2018-06-19T19:47:23.866Z,3.13
2018-06-19T19:49:51.026Z,2.93
2018-06-19T19:52:18.168Z,2.70
2018-06-19T19:54:45.269Z,2.77
2018-06-19T19:57:18.119Z,2.90
2018-06-19T19:59:45.354Z,2.40
2018-06-19T20:02:12.395Z,2.67
2018-06-19T20:04:39.689Z,2.80
2018-06-19T20:07:06.822Z,2.80
2018-06-19T20:09:34.134Z,2.40
2018-06-19T20:12:01.306Z,2.70
2018-06-19T20:14:28.526Z,2.57
2018-06-19T20:16:55.643Z,2.77
2018-06-19T20:19:22.752Z,3.07
2018-06-19T20:21:49.853Z,3.07
2018-06-19T20:24:16.973Z,2.87
2018-06-19T20:26:44.097Z,3.20
2018-06-19T20:29:11.244Z,2.67
2018-06-19T20:31:38.345Z,2.70
2018-06-19T20:34:05.847Z,3.37
2018-06-19T20:36:33.048Z,2.87
2018-06-19T20:39:00.206Z,3.00
2018-06-19T20:41:27.401Z,2.97
2018-06-19T20:43:54.576Z,3.67
2018-06-19T20:46:21.705Z,3.00
2018-06-19T20:48:48.840Z,3.03
2018-06-19T20:51:16.035Z,2.67
2018-06-19T20:53:43.286Z,3.60
2018-06-19T20:56:10.629Z,3.50
2018-06-19T20:58:38.699Z,3.70
2018-06-19T21:01:05.872Z,4.03
2018-06-19T21:03:33.311Z,3.77
2018-06-19T21:06:00.561Z,2.87
2018-06-19T21:08:33.560Z,3.30
2018-06-19T21:11:00.780Z,3.10
2018-06-19T21:13:28.118Z,2.77
2018-06-19T21:15:55.209Z,3.73
2018-06-19T21:18:22.326Z,3.63
2018-06-19T21:20:49.465Z,3.80
2018-06-19T21:23:16.578Z,4.03
2018-06-19T21:25:43.717Z,4.33
2018-06-19T21:28:10.826Z,3.40
2018-06-19T21:30:37.962Z,3.47
2018-06-19T21:33:05.341Z,3.60
2018-06-19T21:35:32.440Z,3.13
2018-06-19T21:37:59.644Z,3.57
2018-06-19T21:40:26.827Z,3.30
2018-06-19T21:42:53.950Z,3.33
2018-06-19T21:45:21.057Z,3.63
2018-06-19T21:47:48.176Z,3.23
2018-06-19T21:50:15.257Z,3.67
2018-06-19T21:52:42.397Z,3.40
2018-06-19T21:55:09.513Z,2.93
2018-06-19T21:57:36.654Z,2.60
2018-06-19T22:00:04.555Z,2.70
2018-06-19T22:02:32.629Z,2.93
2018-06-19T22:05:00.727Z,2.77
2018-06-19T22:07:27.881Z,2.80
2018-06-19T22:09:55.003Z,2.73
2018-06-19T22:12:22.133Z,2.80
2018-06-19T22:14:49.226Z,2.67
2018-06-19T22:17:16.629Z,3.03
2018-06-19T22:19:43.729Z,3.00
2018-06-19T22:22:10.826Z,3.20
2018-06-19T22:24:37.958Z,2.47
2018-06-19T22:27:05.299Z,3.30
2018-06-19T22:29:32.456Z,2.90
2018-06-19T22:31:59.716Z,2.93
2018-06-19T22:34:26.865Z,2.80
2018-06-19T22:36:53.987Z,2.73
2018-06-19T22:39:21.068Z,2.90
2018-06-19T22:41:48.183Z,3.63
2018-06-19T22:44:15.308Z,3.43
2018-06-19T22:46:42.405Z,3.20
2018-06-19T22:49:09.514Z,3.20
2018-06-19T22:51:36.638Z,3.50
2018-06-19T22:54:03.769Z,2.90
2018-06-19T22:56:30.862Z,2.80
2018-06-19T22:58:57.955Z,3.20
2018-06-19T23:01:25.084Z,3.57
2018-06-19T23:03:52.185Z,3.20
2018-06-19T23:06:19.591Z,3.40
2018-06-19T23:08:46.736Z,3.47
2018-06-19T23:11:13.850Z,3.13
2018-06-19T23:13:41.021Z,3.40
2018-06-19T23:16:08.189Z,4.20
2018-06-19T23:18:35.346Z,3.70
2018-06-19T23:21:02.482Z,2.87
2018-06-19T23:23:29.573Z,3.03
2018-06-19T23:25:56.700Z,3.27
2018-06-19T23:28:23.802Z,3.27
2018-06-19T23:30:50.914Z,2.93
2018-06-19T23:33:18.049Z,2.87
2018-06-19T23:35:45.150Z,3.40
2018-06-19T23:38:12.237Z,2.60
2018-06-19T23:40:39.337Z,2.83
2018-06-19T23:45:40.507Z,2.57
2018-06-19T23:48:07.618Z,3.00
2018-06-19T23:50:34.742Z,3.37
2018-06-19T23:53:01.841Z,3.27
2018-06-19T23:55:28.966Z,2.60
2018-06-19T23:57:56.044Z,3.17
